sensor_id;sensor_type;location;lat;lon;timestamp;temperature;humidity
2539;DHT22;1280;49.760;9.664;2023-02-07T00:02:15;3.00;75.90
2539;DHT22;1280;49.760;9.664;2023-02-07T00:04:55;2.90;75.40
2539;DHT22;1280;49.760;9.664;2023-02-07T00:07:26;2.80;75.20
2539;DHT22;1280;49.760;9.664;2023-02-07T00:09:59;2.80;75.30
2539;DHT22;1280;49.760;9.664;2023-02-07T00:12:31;2.80;75.10
2539;DHT22;1280;49.760;9.664;2023-02-07T00:15:08;2.80;75.30
2539;DHT22;1280;49.760;9.664;2023-02-07T00:17:38;2.80;75.00
2539;DHT22;1280;49.760;9.664;2023-02-07T00:20:18;2.80;75.10
2539;DHT22;1280;49.760;9.664;2023-02-07T00:22:54;2.70;74.60
2539;DHT22;1280;49.760;9.664;2023-02-07T00:25:26;2.70;74.30
2539;DHT22;1280;49.760;9.664;2023-02-07T00:28:01;2.60;74.10
2539;DHT22;1280;49.760;9.664;2023-02-07T00:30:38;2.60;74.10
2539;DHT22;1280;49.760;9.664;2023-02-07T00:33:18;2.50;74.40
2539;DHT22;1280;49.760;9.664;2023-02-07T00:35:56;2.60;74.70
2539;DHT22;1280;49.760;9.664;2023-02-07T00:38:48;2.60;74.50
2539;DHT22;1280;49.760;9.664;2023-02-07T00:42:02;2.60;74.10
2539;DHT22;1280;49.760;9.664;2023-02-07T00:44:51;2.50;73.80
2539;DHT22;1280;49.760;9.664;2023-02-07T00:52:01;2.40;73.80
2539;DHT22;1280;49.760;9.664;2023-02-07T00:54:34;2.40;74.20
2539;DHT22;1280;49.760;9.664;2023-02-07T00:57:36;2.40;74.10
2539;DHT22;1280;49.760;9.664;2023-02-07T01:00:11;2.40;74.00
2539;DHT22;1280;49.760;9.664;2023-02-07T01:03:32;2.30;73.90
2539;DHT22;1280;49.760;9.664;2023-02-07T01:06:05;2.30;74.20
2539;DHT22;1280;49.760;9.664;2023-02-07T01:08:38;2.40;74.20
2539;DHT22;1280;49.760;9.664;2023-02-07T01:11:09;2.40;74.10
2539;DHT22;1280;49.760;9.664;2023-02-07T01:13:44;2.30;73.90
2539;DHT22;1280;49.760;9.664;2023-02-07T01:16:18;2.30;74.00
2539;DHT22;1280;49.760;9.664;2023-02-07T01:18:50;2.30;74.10
2539;DHT22;1280;49.760;9.664;2023-02-07T01:21:25;2.40;74.20
2539;DHT22;1280;49.760;9.664;2023-02-07T01:24:00;2.40;74.20
2539;DHT22;1280;49.760;9.664;2023-02-07T01:26:28;2.40;74.10
2539;DHT22;1280;49.760;9.664;2023-02-07T01:29:00;2.40;73.80
2539;DHT22;1280;49.760;9.664;2023-02-07T01:31:29;2.40;73.40
2539;DHT22;1280;49.760;9.664;2023-02-07T01:34:18;2.30;73.70
2539;DHT22;1280;49.760;9.664;2023-02-07T01:36:56;2.30;73.70
2539;DHT22;1280;49.760;9.664;2023-02-07T01:40:45;2.20;73.70
2539;DHT22;1280;49.760;9.664;2023-02-07T01:43:19;2.20;73.50
2539;DHT22;1280;49.760;9.664;2023-02-07T01:45:52;2.20;73.60
2539;DHT22;1280;49.760;9.664;2023-02-07T01:48:30;2.10;73.60
2539;DHT22;1280;49.760;9.664;2023-02-07T01:51:07;2.20;73.60
2539;DHT22;1280;49.760;9.664;2023-02-07T01:53:41;2.10;73.60
2539;DHT22;1280;49.760;9.664;2023-02-07T01:56:20;2.10;73.50
2539;DHT22;1280;49.760;9.664;2023-02-07T01:59:24;2.10;73.40
2539;DHT22;1280;49.760;9.664;2023-02-07T02:02:03;2.00;73.40
2539;DHT22;1280;49.760;9.664;2023-02-07T02:04:44;2.00;73.50
2539;DHT22;1280;49.760;9.664;2023-02-07T02:07:45;2.00;73.40
2539;DHT22;1280;49.760;9.664;2023-02-07T02:10:37;2.00;73.40
2539;DHT22;1280;49.760;9.664;2023-02-07T02:13:39;2.00;73.30
2539;DHT22;1280;49.760;9.664;2023-02-07T02:16:18;1.90;73.20
2539;DHT22;1280;49.760;9.664;2023-02-07T02:22:33;1.90;73.20
2539;DHT22;1280;49.760;9.664;2023-02-07T02:28:41;1.80;73.30
2539;DHT22;1280;49.760;9.664;2023-02-07T02:34:52;1.70;73.50
2539;DHT22;1280;49.760;9.664;2023-02-07T02:37:36;1.70;73.40
2539;DHT22;1280;49.760;9.664;2023-02-07T02:40:33;1.70;73.40
2539;DHT22;1280;49.760;9.664;2023-02-07T02:43:10;1.60;73.40
2539;DHT22;1280;49.760;9.664;2023-02-07T02:45:52;1.70;73.50
2539;DHT22;1280;49.760;9.664;2023-02-07T02:48:30;1.70;73.40
2539;DHT22;1280;49.760;9.664;2023-02-07T03:12:19;1.90;73.80
2539;DHT22;1280;49.760;9.664;2023-02-07T03:14:55;1.90;73.90
2539;DHT22;1280;49.760;9.664;2023-02-07T03:17:53;2.00;73.80
2539;DHT22;1280;49.760;9.664;2023-02-07T03:24:26;2.10;73.60
2539;DHT22;1280;49.760;9.664;2023-02-07T03:28:01;2.10;73.70
2539;DHT22;1280;49.760;9.664;2023-02-07T03:30:59;2.20;73.60
2539;DHT22;1280;49.760;9.664;2023-02-07T03:34:10;2.20;73.30
2539;DHT22;1280;49.760;9.664;2023-02-07T03:41:12;2.10;72.90
2539;DHT22;1280;49.760;9.664;2023-02-07T03:43:51;2.00;73.20
2539;DHT22;1280;49.760;9.664;2023-02-07T03:46:59;2.00;73.40
2539;DHT22;1280;49.760;9.664;2023-02-07T03:49:35;2.00;73.20
2539;DHT22;1280;49.760;9.664;2023-02-07T03:57:07;1.90;73.00
2539;DHT22;1280;49.760;9.664;2023-02-07T03:59:48;1.90;73.00
2539;DHT22;1280;49.760;9.664;2023-02-07T04:02:20;1.80;72.80
2539;DHT22;1280;49.760;9.664;2023-02-07T04:05:01;1.80;73.10
2539;DHT22;1280;49.760;9.664;2023-02-07T04:08:13;1.70;73.00
2539;DHT22;1280;49.760;9.664;2023-02-07T04:11:02;1.70;73.20
2539;DHT22;1280;49.760;9.664;2023-02-07T04:13:59;1.80;73.30
2539;DHT22;1280;49.760;9.664;2023-02-07T04:16:31;1.80;73.30
2539;DHT22;1280;49.760;9.664;2023-02-07T04:19:05;1.90;73.30
2539;DHT22;1280;49.760;9.664;2023-02-07T04:21:41;1.90;73.10
2539;DHT22;1280;49.760;9.664;2023-02-07T04:24:13;1.90;73.00
2539;DHT22;1280;49.760;9.664;2023-02-07T04:26:57;1.90;72.80
2539;DHT22;1280;49.760;9.664;2023-02-07T04:29:28;1.80;72.80
2539;DHT22;1280;49.760;9.664;2023-02-07T04:32:00;1.70;72.60
2539;DHT22;1280;49.760;9.664;2023-02-07T04:34:32;1.70;72.60
2539;DHT22;1280;49.760;9.664;2023-02-07T04:37:08;1.60;72.70
2539;DHT22;1280;49.760;9.664;2023-02-07T04:39:41;1.60;72.80
2539;DHT22;1280;49.760;9.664;2023-02-07T04:42:15;1.60;72.80
2539;DHT22;1280;49.760;9.664;2023-02-07T04:44:51;1.50;72.80
2539;DHT22;1280;49.760;9.664;2023-02-07T04:47:24;1.50;72.80
2539;DHT22;1280;49.760;9.664;2023-02-07T04:49:59;1.40;72.70
2539;DHT22;1280;49.760;9.664;2023-02-07T04:52:34;1.40;72.80
2539;DHT22;1280;49.760;9.664;2023-02-07T04:55:08;1.40;73.00
2539;DHT22;1280;49.760;9.664;2023-02-07T04:57:45;1.50;73.10
2539;DHT22;1280;49.760;9.664;2023-02-07T05:00:19;1.40;72.90
2539;DHT22;1280;49.760;9.664;2023-02-07T05:02:52;1.40;72.80
2539;DHT22;1280;49.760;9.664;2023-02-07T05:05:26;1.40;72.80
2539;DHT22;1280;49.760;9.664;2023-02-07T05:07:55;1.30;72.70
2539;DHT22;1280;49.760;9.664;2023-02-07T05:10:27;1.30;72.80
2539;DHT22;1280;49.760;9.664;2023-02-07T05:12:59;1.20;72.80
2539;DHT22;1280;49.760;9.664;2023-02-07T05:15:40;1.20;72.90
2539;DHT22;1280;49.760;9.664;2023-02-07T05:18:19;1.20;72.90
2539;DHT22;1280;49.760;9.664;2023-02-07T05:20:53;1.20;72.80
2539;DHT22;1280;49.760;9.664;2023-02-07T05:23:34;1.10;72.80
2539;DHT22;1280;49.760;9.664;2023-02-07T05:33:51;1.00;72.90
2539;DHT22;1280;49.760;9.664;2023-02-07T05:44:43;0.90;73.00
2539;DHT22;1280;49.760;9.664;2023-02-07T05:47:55;0.90;73.10
2539;DHT22;1280;49.760;9.664;2023-02-07T05:50:36;0.90;73.30
2539;DHT22;1280;49.760;9.664;2023-02-07T05:53:48;0.90;73.20
2539;DHT22;1280;49.760;9.664;2023-02-07T05:56:19;0.90;73.10
2539;DHT22;1280;49.760;9.664;2023-02-07T06:09:16;0.70;73.00
2539;DHT22;1280;49.760;9.664;2023-02-07T06:12:27;0.70;73.20
2539;DHT22;1280;49.760;9.664;2023-02-07T06:15:29;0.70;73.20
2539;DHT22;1280;49.760;9.664;2023-02-07T06:18:12;0.70;73.20
2539;DHT22;1280;49.760;9.664;2023-02-07T06:20:52;0.80;73.40
2539;DHT22;1280;49.760;9.664;2023-02-07T06:23:21;0.80;73.20
2539;DHT22;1280;49.760;9.664;2023-02-07T06:25:55;0.80;73.20
2539;DHT22;1280;49.760;9.664;2023-02-07T06:28:29;0.80;73.30
2539;DHT22;1280;49.760;9.664;2023-02-07T06:30:59;0.80;73.30
2539;DHT22;1280;49.760;9.664;2023-02-07T06:33:30;0.80;73.20
2539;DHT22;1280;49.760;9.664;2023-02-07T06:35:58;0.80;73.00
2539;DHT22;1280;49.760;9.664;2023-02-07T06:38:27;0.70;72.80
2539;DHT22;1280;49.760;9.664;2023-02-07T06:40:56;0.70;72.80
2539;DHT22;1280;49.760;9.664;2023-02-07T06:43:25;0.60;72.90
2539;DHT22;1280;49.760;9.664;2023-02-07T06:45:54;0.50;72.80
2539;DHT22;1280;49.760;9.664;2023-02-07T06:48:25;0.40;72.70
2539;DHT22;1280;49.760;9.664;2023-02-07T06:50:54;0.40;72.90
2539;DHT22;1280;49.760;9.664;2023-02-07T06:53:25;0.40;73.20
2539;DHT22;1280;49.760;9.664;2023-02-07T06:55:56;0.40;73.20
2539;DHT22;1280;49.760;9.664;2023-02-07T06:58:25;0.40;73.00
2539;DHT22;1280;49.760;9.664;2023-02-07T07:00:53;0.30;73.00
2539;DHT22;1280;49.760;9.664;2023-02-07T07:03:22;0.20;73.00
2539;DHT22;1280;49.760;9.664;2023-02-07T07:05:55;0.20;73.10
2539;DHT22;1280;49.760;9.664;2023-02-07T07:08:24;0.20;73.30
2539;DHT22;1280;49.760;9.664;2023-02-07T07:10:53;0.30;73.40
2539;DHT22;1280;49.760;9.664;2023-02-07T07:13:23;0.20;73.20
2539;DHT22;1280;49.760;9.664;2023-02-07T07:15:58;0.30;73.30
2539;DHT22;1280;49.760;9.664;2023-02-07T07:18:32;0.30;73.40
2539;DHT22;1280;49.760;9.664;2023-02-07T07:21:07;0.30;73.40
2539;DHT22;1280;49.760;9.664;2023-02-07T07:23:36;0.30;73.30
2539;DHT22;1280;49.760;9.664;2023-02-07T07:26:21;0.40;73.50
2539;DHT22;1280;49.760;9.664;2023-02-07T07:29:06;0.40;73.40
2539;DHT22;1280;49.760;9.664;2023-02-07T07:31:38;0.40;73.40
2539;DHT22;1280;49.760;9.664;2023-02-07T07:34:08;0.40;73.30
2539;DHT22;1280;49.760;9.664;2023-02-07T07:36:37;0.40;73.30
2539;DHT22;1280;49.760;9.664;2023-02-07T07:39:08;0.40;73.20
2539;DHT22;1280;49.760;9.664;2023-02-07T07:41:37;0.40;73.20
2539;DHT22;1280;49.760;9.664;2023-02-07T07:44:18;0.40;73.20
2539;DHT22;1280;49.760;9.664;2023-02-07T07:46:46;0.40;73.20
2539;DHT22;1280;49.760;9.664;2023-02-07T07:49:16;0.40;73.20
2539;DHT22;1280;49.760;9.664;2023-02-07T07:51:45;0.30;73.30
2539;DHT22;1280;49.760;9.664;2023-02-07T07:54:14;0.40;73.40
2539;DHT22;1280;49.760;9.664;2023-02-07T07:56:44;0.40;73.40
2539;DHT22;1280;49.760;9.664;2023-02-07T07:59:21;0.40;73.20
2539;DHT22;1280;49.760;9.664;2023-02-07T08:01:50;0.30;73.30
2539;DHT22;1280;49.760;9.664;2023-02-07T08:04:19;0.40;73.20
2539;DHT22;1280;49.760;9.664;2023-02-07T08:06:53;0.30;73.00
2539;DHT22;1280;49.760;9.664;2023-02-07T08:09:26;0.20;73.20
2539;DHT22;1280;49.760;9.664;2023-02-07T08:11:59;0.20;73.30
2539;DHT22;1280;49.760;9.664;2023-02-07T08:14:55;0.20;73.40
2539;DHT22;1280;49.760;9.664;2023-02-07T08:17:45;0.30;73.50
2539;DHT22;1280;49.760;9.664;2023-02-07T08:20:25;0.30;73.50
2539;DHT22;1280;49.760;9.664;2023-02-07T08:22:56;0.30;73.40
2539;DHT22;1280;49.760;9.664;2023-02-07T08:25:29;0.30;73.40
2539;DHT22;1280;49.760;9.664;2023-02-07T08:28:07;0.30;73.50
2539;DHT22;1280;49.760;9.664;2023-02-07T08:30:40;0.30;73.50
2539;DHT22;1280;49.760;9.664;2023-02-07T08:33:16;0.30;73.40
2539;DHT22;1280;49.760;9.664;2023-02-07T08:35:58;0.40;73.50
2539;DHT22;1280;49.760;9.664;2023-02-07T08:38:32;0.40;73.60
2539;DHT22;1280;49.760;9.664;2023-02-07T08:41:12;0.40;73.40
2539;DHT22;1280;49.760;9.664;2023-02-07T08:43:42;0.40;73.50
2539;DHT22;1280;49.760;9.664;2023-02-07T08:46:17;0.40;73.50
2539;DHT22;1280;49.760;9.664;2023-02-07T08:48:51;0.40;73.50
2539;DHT22;1280;49.760;9.664;2023-02-07T08:51:25;0.40;73.50
2539;DHT22;1280;49.760;9.664;2023-02-07T08:54:00;0.50;73.60
2539;DHT22;1280;49.760;9.664;2023-02-07T08:56:35;0.50;73.50
2539;DHT22;1280;49.760;9.664;2023-02-07T08:59:20;0.60;73.50
2539;DHT22;1280;49.760;9.664;2023-02-07T09:01:59;0.60;73.40
2539;DHT22;1280;49.760;9.664;2023-02-07T09:04:50;0.60;73.30
2539;DHT22;1280;49.760;9.664;2023-02-07T09:07:25;0.70;73.30
2539;DHT22;1280;49.760;9.664;2023-02-07T09:10:50;0.60;73.20
2539;DHT22;1280;49.760;9.664;2023-02-07T09:13:21;0.70;73.10
2539;DHT22;1280;49.760;9.664;2023-02-07T09:15:59;0.70;73.20
2539;DHT22;1280;49.760;9.664;2023-02-07T09:18:36;0.70;73.10
2539;DHT22;1280;49.760;9.664;2023-02-07T09:21:06;0.70;73.30
2539;DHT22;1280;49.760;9.664;2023-02-07T09:23:36;0.80;73.30
2539;DHT22;1280;49.760;9.664;2023-02-07T09:26:17;0.80;73.30
2539;DHT22;1280;49.760;9.664;2023-02-07T09:28:57;0.90;73.20
2539;DHT22;1280;49.760;9.664;2023-02-07T09:31:33;0.90;73.00
2539;DHT22;1280;49.760;9.664;2023-02-07T09:34:39;0.90;73.00
2539;DHT22;1280;49.760;9.664;2023-02-07T09:37:08;0.90;73.10
2539;DHT22;1280;49.760;9.664;2023-02-07T09:39:42;1.00;72.90
2539;DHT22;1280;49.760;9.664;2023-02-07T09:42:24;1.00;72.90
2539;DHT22;1280;49.760;9.664;2023-02-07T09:45:00;1.00;72.60
2539;DHT22;1280;49.760;9.664;2023-02-07T09:48:10;1.00;72.50
2539;DHT22;1280;49.760;9.664;2023-02-07T09:54:37;1.00;72.50
2539;DHT22;1280;49.760;9.664;2023-02-07T09:57:46;1.10;72.50
2539;DHT22;1280;49.760;9.664;2023-02-07T10:00:27;1.10;72.50
2539;DHT22;1280;49.760;9.664;2023-02-07T10:03:14;1.10;72.30
2539;DHT22;1280;49.760;9.664;2023-02-07T10:06:21;1.10;72.30
2539;DHT22;1280;49.760;9.664;2023-02-07T10:08:55;1.10;72.10
2539;DHT22;1280;49.760;9.664;2023-02-07T10:11:42;1.20;72.30
2539;DHT22;1280;49.760;9.664;2023-02-07T10:14:26;1.20;72.30
2539;DHT22;1280;49.760;9.664;2023-02-07T10:17:15;1.20;72.20
2539;DHT22;1280;49.760;9.664;2023-02-07T10:20:11;1.30;72.10
2539;DHT22;1280;49.760;9.664;2023-02-07T10:22:59;1.30;72.10
2539;DHT22;1280;49.760;9.664;2023-02-07T10:25:39;1.30;72.20
2539;DHT22;1280;49.760;9.664;2023-02-07T10:28:40;1.40;72.30
2539;DHT22;1280;49.760;9.664;2023-02-07T10:31:14;1.50;71.60
2539;DHT22;1280;49.760;9.664;2023-02-07T10:33:54;1.50;71.80
2539;DHT22;1280;49.760;9.664;2023-02-07T10:36:26;1.50;71.80
2539;DHT22;1280;49.760;9.664;2023-02-07T10:39:03;1.50;71.90
2539;DHT22;1280;49.760;9.664;2023-02-07T10:41:39;1.60;71.70
2539;DHT22;1280;49.760;9.664;2023-02-07T10:44:17;1.60;71.30
2539;DHT22;1280;49.760;9.664;2023-02-07T10:46:54;1.60;71.80
2539;DHT22;1280;49.760;9.664;2023-02-07T10:49:30;1.70;71.70
2539;DHT22;1280;49.760;9.664;2023-02-07T10:52:05;1.80;71.50
2539;DHT22;1280;49.760;9.664;2023-02-07T10:54:50;1.80;71.50
2539;DHT22;1280;49.760;9.664;2023-02-07T10:57:20;1.90;71.40
2539;DHT22;1280;49.760;9.664;2023-02-07T10:59:59;1.90;71.00
2539;DHT22;1280;49.760;9.664;2023-02-07T11:02:48;1.90;71.00
2539;DHT22;1280;49.760;9.664;2023-02-07T11:05:28;1.90;71.10
2539;DHT22;1280;49.760;9.664;2023-02-07T11:08:00;1.90;70.60
2539;DHT22;1280;49.760;9.664;2023-02-07T11:10:33;1.90;70.80
2539;DHT22;1280;49.760;9.664;2023-02-07T11:16:27;2.00;70.50
2539;DHT22;1280;49.760;9.664;2023-02-07T11:19:06;2.00;70.60
2539;DHT22;1280;49.760;9.664;2023-02-07T11:21:47;2.00;70.50
2539;DHT22;1280;49.760;9.664;2023-02-07T11:24:25;2.00;70.20
2539;DHT22;1280;49.760;9.664;2023-02-07T11:27:17;2.00;70.40
2539;DHT22;1280;49.760;9.664;2023-02-07T11:29:52;2.10;70.30
2539;DHT22;1280;49.760;9.664;2023-02-07T11:32:27;2.10;70.20
2539;DHT22;1280;49.760;9.664;2023-02-07T11:35:04;2.20;70.40
2539;DHT22;1280;49.760;9.664;2023-02-07T11:37:46;2.20;69.90
2539;DHT22;1280;49.760;9.664;2023-02-07T11:40:23;2.20;69.80
2539;DHT22;1280;49.760;9.664;2023-02-07T11:43:05;2.30;69.70
2539;DHT22;1280;49.760;9.664;2023-02-07T11:45:44;2.30;69.80
2539;DHT22;1280;49.760;9.664;2023-02-07T11:48:20;2.30;69.80
2539;DHT22;1280;49.760;9.664;2023-02-07T11:51:14;2.40;69.70
2539;DHT22;1280;49.760;9.664;2023-02-07T11:53:52;2.40;69.40
2539;DHT22;1280;49.760;9.664;2023-02-07T11:56:30;2.40;69.50
2539;DHT22;1280;49.760;9.664;2023-02-07T11:59:03;2.40;69.40
2539;DHT22;1280;49.760;9.664;2023-02-07T12:01:34;2.40;69.50
2539;DHT22;1280;49.760;9.664;2023-02-07T12:04:14;2.50;69.10
2539;DHT22;1280;49.760;9.664;2023-02-07T12:06:48;2.50;69.30
2539;DHT22;1280;49.760;9.664;2023-02-07T12:09:31;2.50;68.90
2539;DHT22;1280;49.760;9.664;2023-02-07T12:12:03;2.50;69.00
2539;DHT22;1280;49.760;9.664;2023-02-07T12:14:34;2.60;69.20
2539;DHT22;1280;49.760;9.664;2023-02-07T12:17:10;2.60;68.90
2539;DHT22;1280;49.760;9.664;2023-02-07T12:19:52;2.60;68.70
2539;DHT22;1280;49.760;9.664;2023-02-07T12:22:25;2.60;68.40
2539;DHT22;1280;49.760;9.664;2023-02-07T12:25:00;2.60;68.80
2539;DHT22;1280;49.760;9.664;2023-02-07T12:27:35;2.70;68.60
2539;DHT22;1280;49.760;9.664;2023-02-07T12:30:13;2.70;68.70
2539;DHT22;1280;49.760;9.664;2023-02-07T12:32:50;2.80;68.50
2539;DHT22;1280;49.760;9.664;2023-02-07T12:35:32;2.80;68.10
2539;DHT22;1280;49.760;9.664;2023-02-07T12:38:13;2.80;68.20
2539;DHT22;1280;49.760;9.664;2023-02-07T12:40:47;2.80;68.20
2539;DHT22;1280;49.760;9.664;2023-02-07T12:43:25;2.80;68.10
2539;DHT22;1280;49.760;9.664;2023-02-07T12:46:10;2.80;68.20
2539;DHT22;1280;49.760;9.664;2023-02-07T12:49:01;2.80;68.00
2539;DHT22;1280;49.760;9.664;2023-02-07T12:51:45;2.90;68.00
2539;DHT22;1280;49.760;9.664;2023-02-07T12:54:29;2.90;68.10
2539;DHT22;1280;49.760;9.664;2023-02-07T12:57:04;2.90;67.30
2539;DHT22;1280;49.760;9.664;2023-02-07T12:59:42;2.90;67.70
2539;DHT22;1280;49.760;9.664;2023-02-07T13:02:25;3.00;67.50
2539;DHT22;1280;49.760;9.664;2023-02-07T13:05:20;3.00;67.70
2539;DHT22;1280;49.760;9.664;2023-02-07T13:08:02;3.00;67.40
2539;DHT22;1280;49.760;9.664;2023-02-07T13:10:45;3.00;67.40
2539;DHT22;1280;49.760;9.664;2023-02-07T13:13:21;3.10;67.50
2539;DHT22;1280;49.760;9.664;2023-02-07T13:15:57;3.10;67.40
2539;DHT22;1280;49.760;9.664;2023-02-07T13:18:35;3.10;67.20
2539;DHT22;1280;49.760;9.664;2023-02-07T13:21:16;3.10;67.30
2539;DHT22;1280;49.760;9.664;2023-02-07T13:23:55;3.10;66.50
2539;DHT22;1280;49.760;9.664;2023-02-07T13:26:33;3.10;66.50
2539;DHT22;1280;49.760;9.664;2023-02-07T13:29:11;3.10;66.60
2539;DHT22;1280;49.760;9.664;2023-02-07T13:32:15;3.20;66.70
2539;DHT22;1280;49.760;9.664;2023-02-07T13:34:54;3.10;66.70
2539;DHT22;1280;49.760;9.664;2023-02-07T13:37:34;3.20;66.60
2539;DHT22;1280;49.760;9.664;2023-02-07T13:40:34;3.20;66.20
2539;DHT22;1280;49.760;9.664;2023-02-07T13:43:19;3.20;66.50
2539;DHT22;1280;49.760;9.664;2023-02-07T13:46:04;3.30;66.60
2539;DHT22;1280;49.760;9.664;2023-02-07T13:48:38;3.30;66.60
2539;DHT22;1280;49.760;9.664;2023-02-07T13:51:16;3.40;66.20
2539;DHT22;1280;49.760;9.664;2023-02-07T13:53:53;3.40;66.30
2539;DHT22;1280;49.760;9.664;2023-02-07T13:56:35;3.40;66.20
2539;DHT22;1280;49.760;9.664;2023-02-07T13:59:34;3.40;65.80
2539;DHT22;1280;49.760;9.664;2023-02-07T14:02:16;3.50;66.00
2539;DHT22;1280;49.760;9.664;2023-02-07T14:04:49;3.50;65.90
2539;DHT22;1280;49.760;9.664;2023-02-07T14:07:27;3.50;66.00
2539;DHT22;1280;49.760;9.664;2023-02-07T14:10:33;3.50;65.80
2539;DHT22;1280;49.760;9.664;2023-02-07T14:13:30;3.50;65.50
2539;DHT22;1280;49.760;9.664;2023-02-07T14:16:06;3.50;65.60
2539;DHT22;1280;49.760;9.664;2023-02-07T14:18:41;3.60;65.70
2539;DHT22;1280;49.760;9.664;2023-02-07T14:21:29;3.60;65.40
2539;DHT22;1280;49.760;9.664;2023-02-07T14:24:18;3.60;65.10
2539;DHT22;1280;49.760;9.664;2023-02-07T14:26:57;3.50;65.30
2539;DHT22;1280;49.760;9.664;2023-02-07T14:32:43;3.60;64.90
2539;DHT22;1280;49.760;9.664;2023-02-07T14:35:36;3.50;65.10
2539;DHT22;1280;49.760;9.664;2023-02-07T14:38:21;3.50;65.00
2539;DHT22;1280;49.760;9.664;2023-02-07T14:40:52;3.50;64.70
2539;DHT22;1280;49.760;9.664;2023-02-07T14:43:47;3.60;65.10
2539;DHT22;1280;49.760;9.664;2023-02-07T14:46:37;3.60;65.00
2539;DHT22;1280;49.760;9.664;2023-02-07T14:49:13;3.70;65.00
2539;DHT22;1280;49.760;9.664;2023-02-07T14:51:45;3.70;64.30
2539;DHT22;1280;49.760;9.664;2023-02-07T14:54:21;3.70;64.50
2539;DHT22;1280;49.760;9.664;2023-02-07T14:57:00;3.80;64.50
2539;DHT22;1280;49.760;9.664;2023-02-07T14:59:34;3.80;64.80
2539;DHT22;1280;49.760;9.664;2023-02-07T15:02:33;3.90;64.60
2539;DHT22;1280;49.760;9.664;2023-02-07T15:05:19;3.90;64.60
2539;DHT22;1280;49.760;9.664;2023-02-07T15:07:53;4.00;64.50
2539;DHT22;1280;49.760;9.664;2023-02-07T15:10:24;4.00;64.30
2539;DHT22;1280;49.760;9.664;2023-02-07T15:12:54;4.00;64.40
2539;DHT22;1280;49.760;9.664;2023-02-07T15:15:29;4.00;64.20
2539;DHT22;1280;49.760;9.664;2023-02-07T15:18:02;4.00;63.90
2539;DHT22;1280;49.760;9.664;2023-02-07T15:20:32;4.00;63.90
2539;DHT22;1280;49.760;9.664;2023-02-07T15:23:04;4.00;64.00
2539;DHT22;1280;49.760;9.664;2023-02-07T15:25:34;4.00;63.90
2539;DHT22;1280;49.760;9.664;2023-02-07T15:28:19;4.00;63.90
2539;DHT22;1280;49.760;9.664;2023-02-07T15:30:57;4.00;63.80
2539;DHT22;1280;49.760;9.664;2023-02-07T15:33:29;3.90;63.60
2539;DHT22;1280;49.760;9.664;2023-02-07T15:36:05;3.90;63.60
2539;DHT22;1280;49.760;9.664;2023-02-07T15:38:33;3.90;63.80
2539;DHT22;1280;49.760;9.664;2023-02-07T15:41:02;3.90;63.60
2539;DHT22;1280;49.760;9.664;2023-02-07T15:43:37;3.90;63.60
2539;DHT22;1280;49.760;9.664;2023-02-07T15:46:19;3.90;63.20
2539;DHT22;1280;49.760;9.664;2023-02-07T15:48:53;3.90;63.60
2539;DHT22;1280;49.760;9.664;2023-02-07T15:51:28;3.90;63.70
2539;DHT22;1280;49.760;9.664;2023-02-07T15:54:00;3.90;63.60
2539;DHT22;1280;49.760;9.664;2023-02-07T15:56:29;4.00;63.80
2539;DHT22;1280;49.760;9.664;2023-02-07T15:58:59;4.00;63.80
2539;DHT22;1280;49.760;9.664;2023-02-07T16:01:30;4.00;63.80
2539;DHT22;1280;49.760;9.664;2023-02-07T16:04:02;4.10;63.70
2539;DHT22;1280;49.760;9.664;2023-02-07T16:06:31;4.10;63.70
2539;DHT22;1280;49.760;9.664;2023-02-07T16:09:00;4.10;63.60
2539;DHT22;1280;49.760;9.664;2023-02-07T16:11:35;4.10;63.60
2539;DHT22;1280;49.760;9.664;2023-02-07T16:14:15;4.10;63.60
2539;DHT22;1280;49.760;9.664;2023-02-07T16:16:49;4.10;63.60
2539;DHT22;1280;49.760;9.664;2023-02-07T16:19:26;4.10;63.70
2539;DHT22;1280;49.760;9.664;2023-02-07T16:22:00;4.10;63.70
2539;DHT22;1280;49.760;9.664;2023-02-07T16:24:32;4.10;63.70
2539;DHT22;1280;49.760;9.664;2023-02-07T16:27:01;4.10;63.70
2539;DHT22;1280;49.760;9.664;2023-02-07T16:29:31;4.10;63.70
2539;DHT22;1280;49.760;9.664;2023-02-07T16:32:00;4.10;63.80
2539;DHT22;1280;49.760;9.664;2023-02-07T16:34:30;4.10;63.80
2539;DHT22;1280;49.760;9.664;2023-02-07T16:36:59;4.10;63.90
2539;DHT22;1280;49.760;9.664;2023-02-07T16:39:28;4.10;63.90
2539;DHT22;1280;49.760;9.664;2023-02-07T16:42:01;4.10;64.00
2539;DHT22;1280;49.760;9.664;2023-02-07T16:44:33;4.10;64.00
2539;DHT22;1280;49.760;9.664;2023-02-07T16:47:05;4.20;63.90
2539;DHT22;1280;49.760;9.664;2023-02-07T16:49:43;4.10;63.90
2539;DHT22;1280;49.760;9.664;2023-02-07T16:52:11;4.10;63.80
2539;DHT22;1280;49.760;9.664;2023-02-07T16:54:40;4.10;63.80
2539;DHT22;1280;49.760;9.664;2023-02-07T16:57:11;4.00;63.90
2539;DHT22;1280;49.760;9.664;2023-02-07T16:59:40;4.00;63.90
2539;DHT22;1280;49.760;9.664;2023-02-07T17:02:15;4.00;63.90
2539;DHT22;1280;49.760;9.664;2023-02-07T17:04:53;3.90;63.90
2539;DHT22;1280;49.760;9.664;2023-02-07T17:07:25;3.80;63.90
2539;DHT22;1280;49.760;9.664;2023-02-07T17:09:54;3.80;64.00
2539;DHT22;1280;49.760;9.664;2023-02-07T17:12:24;3.80;64.00
2539;DHT22;1280;49.760;9.664;2023-02-07T17:14:53;3.80;64.00
2539;DHT22;1280;49.760;9.664;2023-02-07T17:17:21;3.70;64.00
2539;DHT22;1280;49.760;9.664;2023-02-07T17:19:50;3.70;64.00
2539;DHT22;1280;49.760;9.664;2023-02-07T17:22:20;3.70;64.10
2539;DHT22;1280;49.760;9.664;2023-02-07T17:24:51;3.70;64.10
2539;DHT22;1280;49.760;9.664;2023-02-07T17:27:20;3.60;64.10
2539;DHT22;1280;49.760;9.664;2023-02-07T17:29:51;3.50;64.20
2539;DHT22;1280;49.760;9.664;2023-02-07T17:32:59;3.50;64.40
2539;DHT22;1280;49.760;9.664;2023-02-07T17:35:27;3.50;64.50
2539;DHT22;1280;49.760;9.664;2023-02-07T17:37:55;3.50;64.50
2539;DHT22;1280;49.760;9.664;2023-02-07T17:40:27;3.60;64.70
2539;DHT22;1280;49.760;9.664;2023-02-07T17:43:01;3.60;64.80
2539;DHT22;1280;49.760;9.664;2023-02-07T17:45:32;3.60;64.80
2539;DHT22;1280;49.760;9.664;2023-02-07T17:48:03;3.60;64.80
2539;DHT22;1280;49.760;9.664;2023-02-07T17:50:33;3.60;64.80
2539;DHT22;1280;49.760;9.664;2023-02-07T17:53:05;3.60;64.80
2539;DHT22;1280;49.760;9.664;2023-02-07T17:55:36;3.60;64.70
2539;DHT22;1280;49.760;9.664;2023-02-07T17:58:05;3.60;64.80
2539;DHT22;1280;49.760;9.664;2023-02-07T18:00:35;3.50;64.80
2539;DHT22;1280;49.760;9.664;2023-02-07T18:03:07;3.50;64.90
2539;DHT22;1280;49.760;9.664;2023-02-07T18:05:36;3.50;64.90
2539;DHT22;1280;49.760;9.664;2023-02-07T18:08:06;3.50;64.90
2539;DHT22;1280;49.760;9.664;2023-02-07T18:10:35;3.50;64.80
2539;DHT22;1280;49.760;9.664;2023-02-07T18:13:06;3.40;64.80
2539;DHT22;1280;49.760;9.664;2023-02-07T18:15:37;3.30;64.70
2539;DHT22;1280;49.760;9.664;2023-02-07T18:18:06;3.20;64.80
2539;DHT22;1280;49.760;9.664;2023-02-07T18:20:34;3.20;64.70
2539;DHT22;1280;49.760;9.664;2023-02-07T18:23:03;3.10;64.80
2539;DHT22;1280;49.760;9.664;2023-02-07T18:25:34;3.10;65.00
2539;DHT22;1280;49.760;9.664;2023-02-07T18:28:09;3.10;65.10
2539;DHT22;1280;49.760;9.664;2023-02-07T18:30:38;3.10;65.10
2539;DHT22;1280;49.760;9.664;2023-02-07T18:33:09;3.10;65.10
2539;DHT22;1280;49.760;9.664;2023-02-07T18:35:40;3.00;64.90
2539;DHT22;1280;49.760;9.664;2023-02-07T18:38:08;3.00;64.90
2539;DHT22;1280;49.760;9.664;2023-02-07T18:40:38;2.90;65.10
2539;DHT22;1280;49.760;9.664;2023-02-07T18:43:07;2.90;65.20
2539;DHT22;1280;49.760;9.664;2023-02-07T18:45:38;2.80;65.20
2539;DHT22;1280;49.760;9.664;2023-02-07T18:48:14;2.70;65.30
2539;DHT22;1280;49.760;9.664;2023-02-07T18:50:43;2.70;65.30
2539;DHT22;1280;49.760;9.664;2023-02-07T18:53:12;2.60;65.40
2539;DHT22;1280;49.760;9.664;2023-02-07T18:55:40;2.60;65.50